createdAt,value
2019-02-27T00:00:35.518Z,1022.6
2019-02-27T00:01:47.764Z,1022.6
2019-02-27T00:02:59.837Z,1022.6
2019-02-27T00:04:12.048Z,1022.6
2019-02-27T00:06:37.152Z,1022.5
2019-02-27T00:07:48.712Z,1022.5
2019-02-27T00:10:13.107Z,1022.5
2019-02-27T00:11:25.207Z,1022.5
2019-02-27T00:12:37.378Z,1022.5
2019-02-27T00:13:49.675Z,1022.5
2019-02-27T00:15:01.810Z,1022.5
2019-02-27T00:18:38.445Z,1022.5
2019-02-27T00:19:50.748Z,1022.5
2019-02-27T00:22:15.130Z,1022.4
2019-02-27T00:24:39.402Z,1022.4
2019-02-27T00:25:51.506Z,1022.4
2019-02-27T00:27:03.726Z,1022.4
2019-02-27T00:28:16.025Z,1022.3
2019-02-27T00:30:40.380Z,1022.3
2019-02-27T00:31:52.539Z,1022.4
2019-02-27T00:34:17.042Z,1022.4
2019-02-27T00:35:30.166Z,1022.4
2019-02-27T00:36:41.422Z,1022.4
2019-02-27T00:39:05.657Z,1022.4
2019-02-27T00:40:17.833Z,1022.3
2019-02-27T00:43:54.555Z,1022.2
2019-02-27T00:46:18.919Z,1022.1
2019-02-27T00:47:31.003Z,1022.2
2019-02-27T00:48:43.268Z,1022.2
2019-02-27T00:49:55.449Z,1022.2
2019-02-27T00:51:07.657Z,1022.2
2019-02-27T00:54:44.167Z,1022.2
2019-02-27T00:55:56.508Z,1022.2
2019-02-27T00:57:08.626Z,1022.2
2019-02-27T00:58:20.974Z,1022.2
2019-02-27T00:59:33.009Z,1022.2
2019-02-27T01:00:45.121Z,1022.2
2019-02-27T01:01:57.416Z,1022.2
2019-02-27T01:03:09.533Z,1022.1
2019-02-27T01:04:21.929Z,1022.2
2019-02-27T01:05:34.031Z,1022.1
2019-02-27T01:06:46.252Z,1022.1
2019-02-27T01:07:58.506Z,1022.2
2019-02-27T01:09:10.603Z,1022.1
2019-02-27T01:10:22.761Z,1022.1
2019-02-27T01:11:35.012Z,1022.1
2019-02-27T01:12:47.060Z,1022.1
2019-02-27T01:13:59.377Z,1022.1
2019-02-27T01:15:11.466Z,1022
2019-02-27T01:16:23.659Z,1022
2019-02-27T01:18:48.230Z,1022
2019-02-27T01:20:00.460Z,1022
2019-02-27T01:22:24.730Z,1022
2019-02-27T01:23:36.892Z,1022
2019-02-27T01:24:49.037Z,1022
2019-02-27T01:26:01.415Z,1022
2019-02-27T01:27:13.484Z,1022
2019-02-27T01:30:49.994Z,1022
2019-02-27T01:32:02.273Z,1021.9
2019-02-27T01:33:14.484Z,1021.9
2019-02-27T01:34:26.876Z,1021.9
2019-02-27T01:35:39.223Z,1021.9
2019-02-27T01:36:51.026Z,1021.9
2019-02-27T01:38:03.179Z,1021.9
2019-02-27T01:39:15.351Z,1021.9
2019-02-27T01:40:27.654Z,1021.8
2019-02-27T01:44:04.273Z,1021.8
2019-02-27T01:45:16.504Z,1021.8
2019-02-27T01:46:28.638Z,1021.8
2019-02-27T01:48:53.043Z,1021.8
2019-02-27T01:51:17.440Z,1021.7
2019-02-27T01:52:29.686Z,1021.7
2019-02-27T01:54:53.955Z,1021.7
2019-02-27T01:56:06.225Z,1021.7
2019-02-27T01:58:30.595Z,1021.6
2019-02-27T01:59:42.753Z,1021.6
2019-02-27T02:00:54.904Z,1021.6
2019-02-27T02:02:07.155Z,1021.6
2019-02-27T02:03:19.248Z,1021.6
2019-02-27T02:04:31.451Z,1021.6
2019-02-27T02:06:55.886Z,1021.6
2019-02-27T02:08:08.195Z,1021.5
2019-02-27T02:10:32.538Z,1021.6
2019-02-27T02:11:44.758Z,1021.5
2019-02-27T02:12:56.808Z,1021.5
2019-02-27T02:14:09.024Z,1021.4
2019-02-27T02:15:21.224Z,1021.4
2019-02-27T02:16:33.562Z,1021.4
2019-02-27T02:20:10.175Z,1021.3
2019-02-27T02:21:22.194Z,1021.2
2019-02-27T02:22:36.088Z,1021.2
2019-02-27T02:23:46.689Z,1021.2
2019-02-27T02:24:58.843Z,1021.2
2019-02-27T02:27:23.259Z,1021.2
2019-02-27T02:28:35.446Z,1021.1
2019-02-27T02:30:59.957Z,1021.1
2019-02-27T02:32:12.010Z,1021.1
2019-02-27T02:34:36.526Z,1021
2019-02-27T02:35:48.540Z,1021
2019-02-27T02:37:03.253Z,1021
2019-02-27T02:38:13.088Z,1021
2019-02-27T02:39:25.232Z,1021
2019-02-27T02:40:37.429Z,1021
2019-02-27T02:43:01.811Z,1021
2019-02-27T02:44:13.967Z,1021
2019-02-27T02:46:38.350Z,1020.9
2019-02-27T02:49:02.702Z,1020.9
2019-02-27T02:50:14.994Z,1021
2019-02-27T02:51:27.153Z,1020.9
2019-02-27T02:52:39.440Z,1020.9
2019-02-27T02:56:15.961Z,1020.9
2019-02-27T02:57:28.130Z,1020.8
2019-02-27T02:58:40.378Z,1020.8
2019-02-27T03:01:04.696Z,1020.8
2019-02-27T03:03:29.012Z,1020.8
2019-02-27T03:04:41.243Z,1020.8
2019-02-27T03:07:05.780Z,1020.7
2019-02-27T03:08:17.971Z,1020.7
2019-02-27T03:09:30.097Z,1020.7
2019-02-27T03:10:42.346Z,1020.7
2019-02-27T03:11:54.481Z,1020.7
2019-02-27T03:13:06.593Z,1020.7
2019-02-27T03:14:18.932Z,1020.7
2019-02-27T03:15:31.046Z,1020.7
2019-02-27T03:19:07.570Z,1020.8
2019-02-27T03:20:19.836Z,1020.7
2019-02-27T03:21:32.063Z,1020.7
2019-02-27T03:25:08.549Z,1020.7
2019-02-27T03:27:33.000Z,1020.6
2019-02-27T03:28:45.269Z,1020.6
2019-02-27T03:32:26.030Z,1020.6
2019-02-27T03:33:36.635Z,1020.7
2019-02-27T03:34:46.241Z,1020.6
2019-02-27T03:35:58.433Z,1020.6
2019-02-27T03:37:10.579Z,1020.5
2019-02-27T03:38:22.796Z,1020.5
2019-02-27T03:39:34.875Z,1020.5
2019-02-27T03:40:47.114Z,1020.5
2019-02-27T03:43:13.385Z,1020.5
2019-02-27T03:44:23.827Z,1020.6
2019-02-27T03:45:35.873Z,1020.5
2019-02-27T03:46:48.185Z,1020.6
2019-02-27T03:48:00.241Z,1020.5
2019-02-27T03:49:12.447Z,1020.6
2019-02-27T03:50:24.805Z,1020.6
2019-02-27T03:51:36.853Z,1020.5
2019-02-27T03:55:13.511Z,1020.5
2019-02-27T03:56:25.676Z,1020.5
2019-02-27T03:57:37.945Z,1020.5
2019-02-27T03:58:50.102Z,1020.6
2019-02-27T04:00:02.327Z,1020.5
2019-02-27T04:01:14.387Z,1020.5
2019-02-27T04:02:26.623Z,1020.5
2019-02-27T04:03:38.993Z,1020.5
2019-02-27T04:04:51.092Z,1020.5
2019-02-27T04:08:27.758Z,1020.5
2019-02-27T04:09:39.870Z,1020.4
2019-02-27T04:10:52.072Z,1020.5
2019-02-27T04:12:04.332Z,1020.4
2019-02-27T04:13:16.494Z,1020.5
2019-02-27T04:15:40.821Z,1020.4
2019-02-27T04:16:53.015Z,1020.4
2019-02-27T04:19:17.453Z,1020.4
2019-02-27T04:20:29.611Z,1020.4
2019-02-27T04:22:54.033Z,1020.4
2019-02-27T04:24:07.235Z,1020.4
2019-02-27T04:25:18.496Z,1020.4
2019-02-27T04:27:42.895Z,1020.3
2019-02-27T04:31:19.377Z,1020.3
2019-02-27T04:32:31.715Z,1020.3
2019-02-27T04:34:55.927Z,1020.2
2019-02-27T04:36:08.130Z,1020.3
2019-02-27T04:37:20.262Z,1020.3
2019-02-27T04:38:33.065Z,1020.3
2019-02-27T04:39:44.735Z,1020.3
2019-02-27T04:40:57.015Z,1020.2
2019-02-27T04:43:21.382Z,1020.2
2019-02-27T04:44:33.541Z,1020.2
2019-02-27T04:45:45.808Z,1020.2
2019-02-27T04:46:57.960Z,1020.2
2019-02-27T04:48:10.129Z,1020.2
2019-02-27T04:49:22.200Z,1020.2
2019-02-27T04:51:46.621Z,1020.2
2019-02-27T04:52:58.932Z,1020.2
2019-02-27T04:55:23.263Z,1020.2
2019-02-27T04:56:35.497Z,1020.3
2019-02-27T04:58:59.899Z,1020.2
2019-02-27T05:00:11.967Z,1020.2
2019-02-27T05:01:24.182Z,1020.2
2019-02-27T05:03:48.548Z,1020.1
2019-02-27T05:07:25.223Z,1020.1
2019-02-27T05:08:37.441Z,1020.1
2019-02-27T05:11:01.860Z,1020.1
2019-02-27T05:13:26.123Z,1020.1
2019-02-27T05:14:38.390Z,1020.1
2019-02-27T05:15:50.611Z,1020
2019-02-27T05:17:02.885Z,1020
2019-02-27T05:19:27.140Z,1020.1
2019-02-27T05:20:39.438Z,1020
2019-02-27T05:21:51.482Z,1020
2019-02-27T05:23:03.858Z,1020
2019-02-27T05:24:15.905Z,1020
2019-02-27T05:25:28.168Z,1020.1
2019-02-27T05:26:40.430Z,1020.1
2019-02-27T05:27:52.451Z,1020
2019-02-27T05:29:04.667Z,1020
2019-02-27T05:32:41.357Z,1020
2019-02-27T05:35:05.738Z,1020
2019-02-27T05:36:17.837Z,1020
2019-02-27T05:37:30.120Z,1020
2019-02-27T05:38:42.423Z,1020
2019-02-27T05:39:54.413Z,1020
2019-02-27T05:43:31.133Z,1019.9
2019-02-27T05:44:43.395Z,1019.9
2019-02-27T05:45:55.503Z,1019.9
2019-02-27T05:47:07.740Z,1020
2019-02-27T05:49:32.092Z,1020
2019-02-27T05:50:44.172Z,1020.1
2019-02-27T05:51:56.442Z,1020
2019-02-27T05:53:08.633Z,1020.1
2019-02-27T05:55:32.953Z,1020
2019-02-27T05:56:45.409Z,1020
2019-02-27T05:57:57.411Z,1020.1
2019-02-27T05:59:09.760Z,1020
2019-02-27T06:00:21.939Z,1019.9
2019-02-27T06:01:33.975Z,1019.9
2019-02-27T06:03:58.328Z,1020
2019-02-27T06:05:10.631Z,1020
2019-02-27T06:08:47.105Z,1019.9
2019-02-27T06:11:11.586Z,1020
2019-02-27T06:12:23.759Z,1019.9
2019-02-27T06:13:35.952Z,1020
2019-02-27T06:14:48.178Z,1019.9
2019-02-27T06:16:00.320Z,1020
2019-02-27T06:19:36.946Z,1020
2019-02-27T06:20:49.230Z,1020
2019-02-27T06:22:01.364Z,1019.9
2019-02-27T06:23:13.660Z,1020
2019-02-27T06:24:25.729Z,1020
2019-02-27T06:25:37.910Z,1020
2019-02-27T06:26:50.139Z,1020
2019-02-27T06:28:02.420Z,1020.1
2019-02-27T06:29:14.558Z,1020
2019-02-27T06:32:51.161Z,1019.9
2019-02-27T06:37:39.860Z,1019.8
2019-02-27T06:38:52.069Z,1019.9
2019-02-27T06:40:04.271Z,1019.8
2019-02-27T06:41:16.473Z,1019.9
2019-02-27T06:43:40.876Z,1019.9
2019-02-27T06:44:53.153Z,1019.9
2019-02-27T06:47:17.493Z,1019.9
2019-02-27T06:48:29.562Z,1019.8
2019-02-27T06:49:41.760Z,1019.9
2019-02-27T06:50:54.038Z,1019.9
2019-02-27T06:52:06.152Z,1019.8
2019-02-27T06:53:18.332Z,1019.8
2019-02-27T06:55:42.729Z,1019.9
2019-02-27T06:56:55.122Z,1019.9
2019-02-27T06:58:07.238Z,1019.8
2019-02-27T06:59:19.413Z,1019.9
2019-02-27T07:00:31.680Z,1019.9
2019-02-27T07:01:43.702Z,1019.8
2019-02-27T07:02:56.091Z,1019.9
2019-02-27T07:04:08.164Z,1019.9
2019-02-27T07:08:56.968Z,1019.9
2019-02-27T07:10:09.080Z,1019.8
2019-02-27T07:11:21.408Z,1019.9
2019-02-27T07:13:45.654Z,1019.9
2019-02-27T07:16:10.055Z,1019.8
2019-02-27T07:17:22.270Z,1019.9
2019-02-27T07:19:46.640Z,1019.8
2019-02-27T07:20:58.934Z,1019.9
2019-02-27T07:23:23.369Z,1019.8
2019-02-27T07:24:35.421Z,1019.8
2019-02-27T07:25:47.640Z,1019.8
2019-02-27T07:26:59.973Z,1019.8
2019-02-27T07:28:12.044Z,1019.8
2019-02-27T07:31:48.767Z,1019.8
2019-02-27T07:33:00.877Z,1019.8
2019-02-27T07:35:28.580Z,1019.8
2019-02-27T07:36:37.398Z,1019.9
2019-02-27T07:37:49.603Z,1019.9
2019-02-27T07:39:01.788Z,1020
2019-02-27T07:40:14.081Z,1019.9
2019-02-27T07:43:50.571Z,1019.9
2019-02-27T07:45:02.868Z,1020
2019-02-27T07:46:15.019Z,1019.8
2019-02-27T07:47:27.203Z,1019.9
2019-02-27T07:48:39.427Z,1019.9
2019-02-27T07:49:51.622Z,1020
2019-02-27T07:52:16.133Z,1019.9
2019-02-27T07:53:28.213Z,1019.9
2019-02-27T07:55:52.687Z,1019.9
2019-02-27T07:57:04.831Z,1019.9
2019-02-27T07:59:29.154Z,1020
2019-02-27T08:00:41.318Z,1020
2019-02-27T08:01:53.480Z,1019.9
2019-02-27T08:03:05.805Z,1019.9
2019-02-27T08:04:17.887Z,1020
2019-02-27T08:07:54.530Z,1019.9
2019-02-27T08:09:06.868Z,1020
2019-02-27T08:10:18.945Z,1020
2019-02-27T08:11:31.162Z,1019.9
2019-02-27T08:13:55.584Z,1019.9
2019-02-27T08:16:19.901Z,1019.9
2019-02-27T08:17:32.217Z,1019.9
2019-02-27T08:19:56.431Z,1019.9
2019-02-27T08:21:08.613Z,1019.8
2019-02-27T08:22:20.815Z,1019.8
2019-02-27T08:23:33.217Z,1019.9
2019-02-27T08:25:57.406Z,1019.8
2019-02-27T08:27:13.798Z,1019.8
2019-02-27T08:28:25.875Z,1019.8
2019-02-27T08:29:34.050Z,1019.8
2019-02-27T08:31:58.577Z,1020
2019-02-27T08:33:10.648Z,1019.8
2019-02-27T08:35:35.071Z,1019.9
2019-02-27T08:36:47.231Z,1019.9
2019-02-27T08:37:59.414Z,1019.9
2019-02-27T08:39:11.539Z,1019.9
2019-02-27T08:40:23.849Z,1020
2019-02-27T08:41:36.059Z,1019.9
2019-02-27T08:44:00.420Z,1019.9
2019-02-27T08:45:12.624Z,1019.8
2019-02-27T08:49:40.996Z,1019.9
2019-02-27T08:51:13.497Z,1019.9
2019-02-27T08:52:25.767Z,1019.8
2019-02-27T08:53:38.010Z,1019.8
2019-02-27T08:56:02.299Z,1019.8
2019-02-27T08:57:14.477Z,1019.7
2019-02-27T08:58:26.721Z,1019.7
2019-02-27T08:59:38.948Z,1019.7
2019-02-27T09:00:51.068Z,1019.7
2019-02-27T09:02:03.235Z,1019.7
2019-02-27T09:04:27.641Z,1019.7
2019-02-27T09:05:39.858Z,1019.8
2019-02-27T09:08:04.301Z,1019.7
2019-02-27T09:09:16.479Z,1019.7
2019-02-27T09:10:28.719Z,1019.6
2019-02-27T09:11:40.881Z,1019.7
2019-02-27T09:12:53.094Z,1019.7
2019-02-27T09:14:05.258Z,1019.7
2019-02-27T09:15:17.522Z,1019.7
2019-02-27T09:16:29.591Z,1019.6
2019-02-27T09:17:41.860Z,1019.6
2019-02-27T09:20:06.238Z,1019.6
2019-02-27T09:21:18.434Z,1019.6
2019-02-27T09:22:30.713Z,1019.6
2019-02-27T09:23:42.857Z,1019.5
2019-02-27T09:26:07.178Z,1019.5
2019-02-27T09:27:19.342Z,1019.6
2019-02-27T09:28:31.650Z,1019.5
2019-02-27T09:29:43.738Z,1019.4
2019-02-27T09:33:20.517Z,1019.5
2019-02-27T09:34:32.695Z,1019.5
2019-02-27T09:35:44.863Z,1019.5
2019-02-27T09:36:57.157Z,1019.4
2019-02-27T09:38:09.116Z,1019.5
2019-02-27T09:39:21.387Z,1019.5
2019-02-27T09:40:33.502Z,1019.5
2019-02-27T09:41:45.685Z,1019.4
2019-02-27T09:44:10.119Z,1019.4
2019-02-27T09:45:22.644Z,1019.4
2019-02-27T09:47:46.814Z,1019.4
2019-02-27T09:49:02.105Z,1019.4
2019-02-27T09:50:13.356Z,1019.4
2019-02-27T09:51:23.250Z,1019.4
2019-02-27T09:52:35.539Z,1019.4
2019-02-27T09:56:12.034Z,1019.3
2019-02-27T09:57:24.280Z,1019.3
2019-02-27T09:58:36.422Z,1019.3
2019-02-27T09:59:48.802Z,1019.3
2019-02-27T10:02:13.093Z,1019.3
2019-02-27T10:03:25.293Z,1019.3
2019-02-27T10:04:37.488Z,1019.3
2019-02-27T10:09:26.348Z,1019.3
2019-02-27T10:10:38.386Z,1019.3
2019-02-27T10:11:50.680Z,1019.3
2019-02-27T10:14:15.028Z,1019.2
2019-02-27T10:16:42.882Z,1019.2
2019-02-27T10:17:51.719Z,1019.2
2019-02-27T10:20:16.031Z,1019.2
2019-02-27T10:21:28.237Z,1019.2
2019-02-27T10:23:52.608Z,1019.2
2019-02-27T10:25:04.733Z,1019.1
2019-02-27T10:26:16.974Z,1019.1
2019-02-27T10:27:29.230Z,1019.1
2019-02-27T10:28:41.371Z,1019.1
2019-02-27T10:33:30.317Z,1019.1
2019-02-27T10:34:42.344Z,1019.1
2019-02-27T10:35:54.664Z,1019
2019-02-27T10:37:06.787Z,1019.1
2019-02-27T10:38:18.936Z,1019
2019-02-27T10:39:31.088Z,1018.9
2019-02-27T10:40:43.353Z,1019
2019-02-27T10:45:32.263Z,1019
2019-02-27T10:46:44.219Z,1018.9
2019-02-27T10:47:56.516Z,1018.9
2019-02-27T10:50:20.955Z,1018.9
2019-02-27T10:52:45.257Z,1018.9
2019-02-27T10:53:57.508Z,1018.9
2019-02-27T10:56:21.845Z,1018.9
2019-02-27T10:57:34.028Z,1018.9
2019-02-27T10:59:58.445Z,1018.9
2019-02-27T11:01:10.691Z,1018.9
2019-02-27T11:02:22.758Z,1018.9
2019-02-27T11:03:38.729Z,1018.9
2019-02-27T11:04:47.273Z,1018.9
2019-02-27T11:09:36.080Z,1018.8
2019-02-27T11:10:48.190Z,1018.8
2019-02-27T11:12:00.430Z,1018.7
2019-02-27T11:15:36.960Z,1018.6
2019-02-27T11:16:49.170Z,1018.6
2019-02-27T11:18:01.448Z,1018.7
2019-02-27T11:21:37.891Z,1018.6
2019-02-27T11:22:50.038Z,1018.6
2019-02-27T11:24:02.325Z,1018.5
2019-02-27T11:25:14.422Z,1018.5
2019-02-27T11:26:26.682Z,1018.5
2019-02-27T11:28:51.195Z,1018.4
2019-02-27T11:30:03.234Z,1018.4
2019-02-27T11:32:27.574Z,1018.4
2019-02-27T11:33:39.843Z,1018.4
2019-02-27T11:36:04.279Z,1018.3
2019-02-27T11:37:16.357Z,1018.3
2019-02-27T11:38:28.665Z,1018.2
2019-02-27T11:39:40.856Z,1018.2
2019-02-27T11:40:52.956Z,1018.3
2019-02-27T11:44:29.527Z,1018.2
2019-02-27T11:45:41.865Z,1018.1
2019-02-27T11:48:06.319Z,1018
2019-02-27T11:49:18.361Z,1018.1
2019-02-27T11:50:30.554Z,1017.8
2019-02-27T11:51:42.738Z,1017.7
2019-02-27T11:52:55.012Z,1017.7
2019-02-27T11:54:07.149Z,1017.6
2019-02-27T11:56:31.783Z,1017.5
2019-02-27T11:57:43.710Z,1017.5
2019-02-27T11:58:55.844Z,1017.5
2019-02-27T12:00:08.122Z,1017.5
2019-02-27T12:01:20.355Z,1017.5
2019-02-27T12:02:32.599Z,1017.4
2019-02-27T12:04:56.998Z,1017.4
2019-02-27T12:06:09.029Z,1017.4
2019-02-27T12:09:45.726Z,1017.3
2019-02-27T12:12:10.106Z,1017.3
2019-02-27T12:13:22.261Z,1017.3
2019-02-27T12:14:34.424Z,1017.3
2019-02-27T12:15:46.552Z,1017.3
2019-02-27T12:16:58.876Z,1017.2
2019-02-27T12:18:11.725Z,1017.2
2019-02-27T12:20:38.835Z,1017.1
2019-02-27T12:21:49.919Z,1017.1
2019-02-27T12:24:12.073Z,1017
2019-02-27T12:26:36.391Z,1017.1
2019-02-27T12:27:48.495Z,1017
2019-02-27T12:29:00.809Z,1017
2019-02-27T12:30:12.970Z,1017
2019-02-27T12:33:49.579Z,1016.9
2019-02-27T12:36:14.960Z,1016.9
2019-02-27T12:37:26.145Z,1016.9
2019-02-27T12:38:38.317Z,1016.8
2019-02-27T12:41:02.625Z,1016.8
2019-02-27T12:42:14.874Z,1016.7
2019-02-27T12:44:39.398Z,1016.7
2019-02-27T12:45:51.479Z,1016.7
2019-02-27T12:48:15.914Z,1016.7
2019-02-27T12:49:28.057Z,1016.6
2019-02-27T12:50:40.248Z,1016.6
2019-02-27T12:51:52.463Z,1016.6
2019-02-27T12:53:04.625Z,1016.5
2019-02-27T12:56:41.222Z,1016.5
2019-02-27T12:57:53.379Z,1016.4
2019-02-27T12:59:05.827Z,1016.4
2019-02-27T13:00:17.859Z,1016.4
2019-02-27T13:01:30.034Z,1016.5
2019-02-27T13:02:42.156Z,1016.4
2019-02-27T13:03:54.449Z,1016.4
2019-02-27T13:05:06.503Z,1016.4
2019-02-27T13:06:22.315Z,1016.4
2019-02-27T13:09:55.491Z,1016.2
2019-02-27T13:12:19.714Z,1016.3
2019-02-27T13:13:31.961Z,1016.2
2019-02-27T13:14:44.026Z,1016.2
2019-02-27T13:15:56.229Z,1016.2
2019-02-27T13:17:08.436Z,1016.2
2019-02-27T13:18:20.637Z,1016.2
2019-02-27T13:20:45.029Z,1016.1
2019-02-27T13:21:57.538Z,1016.1
2019-02-27T13:23:09.426Z,1016
2019-02-27T13:24:21.696Z,1016.1
2019-02-27T13:25:33.805Z,1016
2019-02-27T13:26:46.047Z,1016
2019-02-27T13:27:58.170Z,1015.9
2019-02-27T13:29:10.364Z,1015.9
2019-02-27T13:30:22.625Z,1015.9
2019-02-27T13:32:47.070Z,1015.9
2019-02-27T13:33:59.235Z,1015.8
2019-02-27T13:36:23.635Z,1015.7
2019-02-27T13:37:35.722Z,1015.8
2019-02-27T13:38:47.913Z,1015.7
2019-02-27T13:40:00.174Z,1015.7
2019-02-27T13:41:12.945Z,1015.7
2019-02-27T13:42:24.637Z,1015.6
2019-02-27T13:44:48.991Z,1015.6
2019-02-27T13:46:01.237Z,1015.6
2019-02-27T13:47:13.252Z,1015.6
2019-02-27T13:48:25.593Z,1015.6
2019-02-27T13:49:37.644Z,1015.5
2019-02-27T13:50:49.842Z,1015.5
2019-02-27T13:52:02.119Z,1015.5
2019-02-27T13:53:14.371Z,1015.4
2019-02-27T13:54:26.514Z,1015.4
2019-02-27T13:56:50.825Z,1015.3
2019-02-27T13:58:03.144Z,1015.3
2019-02-27T13:59:15.228Z,1015.3
2019-02-27T14:00:27.562Z,1015.3
2019-02-27T14:01:43.096Z,1015.3
2019-02-27T14:02:51.910Z,1015.3
2019-02-27T14:05:16.277Z,1015.3
2019-02-27T14:06:28.368Z,1015.3
2019-02-27T14:08:52.790Z,1015.2
2019-02-27T14:10:05.154Z,1015.2
2019-02-27T14:12:31.391Z,1015.2
2019-02-27T14:14:53.725Z,1015.1
2019-02-27T14:16:05.904Z,1015.1
2019-02-27T14:17:18.329Z,1015.1
2019-02-27T14:18:30.299Z,1015
2019-02-27T14:22:07.040Z,1015
2019-02-27T14:23:19.165Z,1014.9
2019-02-27T14:24:31.419Z,1014.9
2019-02-27T14:25:43.529Z,1014.9
2019-02-27T14:26:55.634Z,1014.9
2019-02-27T14:29:20.039Z,1014.9
2019-02-27T14:30:32.371Z,1014.9
2019-02-27T14:32:56.630Z,1014.9
2019-02-27T14:34:08.892Z,1014.8
2019-02-27T14:36:33.377Z,1014.8
2019-02-27T14:37:45.403Z,1014.7
2019-02-27T14:38:57.665Z,1014.7
2019-02-27T14:41:22.100Z,1014.7
2019-02-27T14:44:58.550Z,1014.7
2019-02-27T14:46:10.764Z,1014.7
2019-02-27T14:47:22.997Z,1014.7
2019-02-27T14:48:35.222Z,1014.7
2019-02-27T14:50:59.640Z,1014.6
2019-02-27T14:52:11.730Z,1014.6
2019-02-27T14:53:24.097Z,1014.5
2019-02-27T14:58:12.786Z,1014.5
2019-02-27T14:59:25.001Z,1014.5
2019-02-27T15:00:37.233Z,1014.5
2019-02-27T15:01:49.282Z,1014.5
2019-02-27T15:03:01.537Z,1014.5
2019-02-27T15:05:25.931Z,1014.4
2019-02-27T15:06:38.136Z,1014.4
2019-02-27T15:09:02.502Z,1014.4
2019-02-27T15:10:14.793Z,1014.3
2019-02-27T15:12:39.100Z,1014.3
2019-02-27T15:13:51.205Z,1014.3
2019-02-27T15:15:03.394Z,1014.3
2019-02-27T15:16:15.787Z,1014.3
2019-02-27T15:17:27.847Z,1014.3
2019-02-27T15:21:04.361Z,1014.2
2019-02-27T15:22:16.670Z,1014.2
2019-02-27T15:23:28.750Z,1014.2
2019-02-27T15:24:41.105Z,1014.2
2019-02-27T15:27:05.437Z,1014.2
2019-02-27T15:28:17.595Z,1014.2
2019-02-27T15:29:29.835Z,1014.2
2019-02-27T15:30:42.079Z,1014.2
2019-02-27T15:34:18.565Z,1014.1
2019-02-27T15:35:30.683Z,1014.1
2019-02-27T15:36:43.060Z,1014
2019-02-27T15:39:07.253Z,1014
2019-02-27T15:41:34.675Z,1013.9
2019-02-27T15:42:45.418Z,1013.9
2019-02-27T15:45:08.310Z,1013.8
2019-02-27T15:46:20.544Z,1013.8
2019-02-27T15:48:44.906Z,1013.7
2019-02-27T15:49:57.003Z,1013.7
2019-02-27T15:51:09.192Z,1013.7
2019-02-27T15:52:24.216Z,1013.7
2019-02-27T15:53:33.673Z,1013.7
2019-02-27T15:57:10.182Z,1013.7
2019-02-27T15:58:22.566Z,1013.6
2019-02-27T15:59:34.667Z,1013.6
2019-02-27T16:00:46.818Z,1013.6
2019-02-27T16:03:11.141Z,1013.5
2019-02-27T16:04:23.337Z,1013.6
2019-02-27T16:05:35.519Z,1013.6
2019-02-27T16:10:24.394Z,1013.5
2019-02-27T16:11:36.477Z,1013.5
2019-02-27T16:12:48.799Z,1013.5
2019-02-27T16:14:00.870Z,1013.5
2019-02-27T16:15:13.073Z,1013.5
2019-02-27T16:17:37.450Z,1013.5
2019-02-27T16:18:49.656Z,1013.4
2019-02-27T16:22:26.305Z,1013.4
2019-02-27T16:23:42.730Z,1013.4
2019-02-27T16:24:50.769Z,1013.3
2019-02-27T16:26:02.913Z,1013.4
2019-02-27T16:27:15.003Z,1013.4
2019-02-27T16:28:27.264Z,1013.4
2019-02-27T16:29:39.465Z,1013.3
2019-02-27T16:33:15.987Z,1013.3
2019-02-27T16:34:28.392Z,1013.3
2019-02-27T16:35:43.352Z,1013.2
2019-02-27T16:36:55.091Z,1013.3
2019-02-27T16:39:17.031Z,1013.2
2019-02-27T16:40:29.168Z,1013.2
2019-02-27T16:41:41.353Z,1013.2
2019-02-27T16:42:53.610Z,1013.2
2019-02-27T16:45:17.921Z,1013.1
2019-02-27T16:46:30.263Z,1013.1
2019-02-27T16:47:42.424Z,1013.1
2019-02-27T16:48:54.481Z,1013.2
2019-02-27T16:50:06.741Z,1013.1
2019-02-27T16:51:18.949Z,1013.2
2019-02-27T16:53:43.336Z,1013.1
2019-02-27T16:54:55.548Z,1013.1
2019-02-27T16:57:20.018Z,1013.1
2019-02-27T16:58:32.128Z,1013
2019-02-27T17:00:56.419Z,1013
2019-02-27T17:02:08.860Z,1013
2019-02-27T17:03:20.816Z,1013
2019-02-27T17:04:33.199Z,1013
2019-02-27T17:05:45.288Z,1013
2019-02-27T17:06:57.537Z,1013
2019-02-27T17:09:22.178Z,1013
2019-02-27T17:10:34.075Z,1013
2019-02-27T17:11:46.293Z,1013
2019-02-27T17:12:58.507Z,1013
2019-02-27T17:14:10.563Z,1013
2019-02-27T17:15:22.746Z,1013
2019-02-27T17:16:34.951Z,1013
2019-02-27T17:17:47.208Z,1013
2019-02-27T17:18:59.395Z,1012.9
2019-02-27T17:21:23.805Z,1012.9
2019-02-27T17:22:36.031Z,1012.9
2019-02-27T17:23:48.180Z,1012.9
2019-02-27T17:25:00.419Z,1012.9
2019-02-27T17:26:12.576Z,1012.9
2019-02-27T17:27:24.682Z,1012.9
2019-02-27T17:28:36.939Z,1012.8
2019-02-27T17:29:49.343Z,1012.8
2019-02-27T17:31:01.407Z,1012.7
2019-02-27T17:33:25.672Z,1012.7
2019-02-27T17:34:37.953Z,1012.7
2019-02-27T17:35:50.023Z,1012.7
2019-02-27T17:37:04.350Z,1012.7
2019-02-27T17:38:14.531Z,1012.7
2019-02-27T17:39:26.699Z,1012.6
2019-02-27T17:40:38.830Z,1012.7
2019-02-27T17:41:51.137Z,1012.6
2019-02-27T17:45:27.613Z,1012.6
2019-02-27T17:46:39.851Z,1012.6
2019-02-27T17:47:52.161Z,1012.6
2019-02-27T17:49:04.359Z,1012.6
2019-02-27T17:51:28.544Z,1012.6
2019-02-27T17:52:40.814Z,1012.6
2019-02-27T17:53:53.073Z,1012.6
2019-02-27T17:55:05.253Z,1012.6
2019-02-27T17:57:29.602Z,1012.5
2019-02-27T17:58:42.335Z,1012.6
2019-02-27T17:59:53.908Z,1012.6
2019-02-27T18:01:06.171Z,1012.6
2019-02-27T18:02:18.371Z,1012.6
2019-02-27T18:03:30.482Z,1012.5
2019-02-27T18:04:42.763Z,1012.6
2019-02-27T18:05:55.002Z,1012.5
2019-02-27T18:07:07.093Z,1012.5
2019-02-27T18:10:43.788Z,1012.5
2019-02-27T18:13:08.152Z,1012.5
2019-02-27T18:14:20.302Z,1012.5
2019-02-27T18:15:32.452Z,1012.4
2019-02-27T18:16:44.686Z,1012.5
2019-02-27T18:17:56.938Z,1012.4
2019-02-27T18:19:09.012Z,1012.4
2019-02-27T18:21:33.417Z,1012.4
2019-02-27T18:22:45.700Z,1012.4
2019-02-27T18:23:57.862Z,1012.4
2019-02-27T18:25:10.166Z,1012.4
2019-02-27T18:27:34.416Z,1012.4
2019-02-27T18:28:46.709Z,1012.3
2019-02-27T18:29:58.740Z,1012.3
2019-02-27T18:31:11.028Z,1012.3
2019-02-27T18:33:35.469Z,1012.3
2019-02-27T18:34:47.711Z,1012.3
2019-02-27T18:35:59.726Z,1012.3
2019-02-27T18:37:12.007Z,1012.3
2019-02-27T18:38:24.137Z,1012.3
2019-02-27T18:39:36.316Z,1012.3
2019-02-27T18:40:48.592Z,1012.3
2019-02-27T18:42:00.763Z,1012.3
2019-02-27T18:43:12.962Z,1012.3
2019-02-27T18:45:37.342Z,1012.2
2019-02-27T18:46:49.606Z,1012.2
2019-02-27T18:49:13.933Z,1012.1
2019-02-27T18:50:26.032Z,1012.2
2019-02-27T18:51:38.242Z,1012.1
2019-02-27T18:52:50.514Z,1012.1
2019-02-27T18:54:02.784Z,1012.1
2019-02-27T18:57:39.277Z,1012.1
2019-02-27T18:58:51.452Z,1012.1
2019-02-27T19:00:03.593Z,1012.1
2019-02-27T19:01:15.935Z,1012.1
2019-02-27T19:02:28.160Z,1012
2019-02-27T19:03:40.219Z,1012
2019-02-27T19:04:52.426Z,1012
2019-02-27T19:06:04.540Z,1012
2019-02-27T19:07:21.383Z,1012
2019-02-27T19:10:53.476Z,1012
2019-02-27T19:12:05.514Z,1012
2019-02-27T19:13:17.864Z,1012.1
2019-02-27T19:14:29.898Z,1012
2019-02-27T19:15:42.260Z,1012
2019-02-27T19:18:06.689Z,1012
2019-02-27T19:19:18.746Z,1012
2019-02-27T19:22:55.346Z,1011.9
2019-02-27T19:25:19.722Z,1011.9
2019-02-27T19:26:31.826Z,1011.9
2019-02-27T19:27:44.107Z,1011.9
2019-02-27T19:28:56.233Z,1011.9
2019-02-27T19:30:08.430Z,1012
2019-02-27T19:33:45.074Z,1011.9
2019-02-27T19:34:57.234Z,1011.9
2019-02-27T19:36:09.423Z,1011.9
2019-02-27T19:37:21.773Z,1011.9
2019-02-27T19:38:33.861Z,1011.9
2019-02-27T19:39:45.954Z,1011.9
2019-02-27T19:40:58.143Z,1011.9
2019-02-27T19:42:10.403Z,1011.9
2019-02-27T19:43:22.718Z,1011.8
2019-02-27T19:46:59.303Z,1011.8
2019-02-27T19:48:11.309Z,1011.8
2019-02-27T19:49:23.564Z,1011.7
2019-02-27T19:50:36.008Z,1011.8
2019-02-27T19:51:47.886Z,1011.7
2019-02-27T19:54:12.293Z,1011.7
2019-02-27T19:55:24.477Z,1011.7
2019-02-27T19:59:01.200Z,1011.6
2019-02-27T20:01:25.732Z,1011.6
2019-02-27T20:02:37.637Z,1011.6
2019-02-27T20:03:49.941Z,1011.6
2019-02-27T20:05:02.018Z,1011.6
2019-02-27T20:06:17.341Z,1011.5
2019-02-27T20:07:28.147Z,1011.5
2019-02-27T20:09:50.874Z,1011.5
2019-02-27T20:11:03.189Z,1011.4
2019-02-27T20:12:15.179Z,1011.4
2019-02-27T20:13:27.502Z,1011.4
2019-02-27T20:15:51.749Z,1011.4
2019-02-27T20:17:03.951Z,1011.4
2019-02-27T20:18:16.378Z,1011.3
2019-02-27T20:19:28.429Z,1011.4
2019-02-27T20:21:52.721Z,1011.4